createdAt,value
2023-01-29T00:01:58.010Z,2.52
2023-01-29T00:07:01.871Z,2.53
2023-01-29T00:12:10.443Z,2.54
2023-01-29T00:17:17.682Z,2.55
2023-01-29T00:22:21.743Z,2.54
2023-01-29T00:27:26.191Z,2.55
2023-01-29T00:32:27.938Z,2.53
2023-01-29T00:37:29.880Z,2.46
2023-01-29T00:42:52.195Z,2.46
2023-01-29T00:47:59.955Z,2.48
2023-01-29T00:53:03.975Z,2.49
2023-01-29T00:58:08.220Z,2.45
2023-01-29T01:03:13.344Z,2.40
2023-01-29T01:08:33.842Z,2.31
2023-01-29T01:13:35.683Z,2.18
2023-01-29T01:18:38.125Z,2.13
2023-01-29T01:23:40.027Z,2.08
2023-01-29T01:28:44.381Z,2.02
2023-01-29T01:33:46.179Z,1.98
2023-01-29T01:38:47.961Z,2.04
2023-01-29T01:43:59.239Z,2.08
2023-01-29T01:49:16.611Z,2.12
2023-01-29T01:54:24.353Z,2.15
2023-01-29T01:59:28.553Z,2.19
2023-01-29T02:04:48.889Z,2.21
2023-01-29T02:10:00.386Z,2.20
2023-01-29T02:15:04.014Z,2.17
2023-01-29T02:20:14.518Z,2.12
2023-01-29T02:25:36.933Z,2.02
2023-01-29T02:31:27.492Z,1.96
2023-01-29T02:36:40.170Z,1.87
2023-01-29T02:41:47.694Z,1.81
2023-01-29T02:47:06.057Z,1.81
2023-01-29T02:52:28.111Z,1.71
2023-01-29T02:57:37.262Z,1.70
2023-01-29T03:02:53.114Z,1.84
2023-01-29T03:08:01.736Z,1.85
2023-01-29T03:13:14.337Z,1.81
2023-01-29T03:18:18.905Z,1.82
2023-01-29T03:23:54.921Z,1.83
2023-01-29T03:29:15.361Z,1.85
2023-01-29T03:34:24.292Z,1.77
2023-01-29T03:39:30.385Z,1.72
2023-01-29T03:44:48.925Z,1.70
2023-01-29T03:50:02.497Z,1.74
2023-01-29T03:55:39.952Z,1.81
2023-01-29T04:00:57.163Z,1.93
2023-01-29T04:06:19.320Z,2.00
2023-01-29T04:11:37.065Z,2.10
2023-01-29T04:16:47.116Z,2.18
2023-01-29T04:22:04.023Z,2.30
2023-01-29T04:27:29.042Z,2.35
2023-01-29T04:32:53.751Z,2.41
2023-01-29T04:38:25.705Z,2.43
2023-01-29T04:43:56.344Z,2.45
2023-01-29T04:48:57.978Z,2.47
2023-01-29T04:54:18.467Z,2.51
2023-01-29T04:59:51.534Z,2.55
2023-01-29T05:04:56.411Z,2.56
2023-01-29T05:09:58.408Z,2.59
2023-01-29T05:15:05.306Z,2.59
2023-01-29T05:20:07.821Z,2.63
2023-01-29T05:25:27.061Z,2.64
2023-01-29T05:30:32.364Z,2.72
2023-01-29T05:35:38.649Z,2.71
2023-01-29T05:40:45.172Z,2.68
2023-01-29T05:45:57.640Z,2.69
2023-01-29T05:51:02.913Z,2.68
2023-01-29T05:56:07.684Z,2.71
2023-01-29T06:01:20.072Z,2.75
2023-01-29T06:06:25.624Z,2.77
2023-01-29T06:11:31.582Z,2.77
2023-01-29T06:16:37.943Z,2.76
2023-01-29T06:21:39.938Z,2.72
2023-01-29T06:26:41.675Z,2.71
2023-01-29T06:31:45.857Z,2.72
2023-01-29T06:36:50.251Z,2.70
2023-01-29T06:41:54.906Z,2.70
2023-01-29T06:46:59.056Z,2.70
2023-01-29T06:52:06.754Z,2.70
2023-01-29T06:57:15.478Z,2.70
2023-01-29T07:02:17.689Z,2.70
2023-01-29T07:07:20.272Z,2.70
2023-01-29T07:12:24.287Z,2.70
2023-01-29T07:17:28.387Z,2.70
2023-01-29T07:22:34.521Z,2.72
2023-01-29T07:27:38.420Z,2.75
2023-01-29T07:32:40.260Z,2.76
2023-01-29T07:37:43.102Z,2.78
2023-01-29T07:42:47.303Z,2.84
2023-01-29T07:47:55.725Z,3.07
2023-01-29T07:52:58.436Z,3.05
2023-01-29T07:58:02.832Z,3.05
2023-01-29T08:03:11.753Z,3.02
2023-01-29T08:08:13.780Z,3.04
2023-01-29T08:13:15.628Z,3.03
2023-01-29T08:18:17.579Z,3.03
2023-01-29T08:23:19.435Z,3.10
2023-01-29T08:28:24.026Z,3.05
2023-01-29T08:33:38.723Z,3.02
2023-01-29T08:38:41.135Z,2.99
2023-01-29T08:43:50.406Z,2.96
2023-01-29T08:48:52.330Z,2.96
2023-01-29T08:53:56.449Z,2.96
2023-01-29T08:58:59.174Z,2.98
2023-01-29T09:04:00.949Z,3.01
2023-01-29T09:09:03.423Z,3.08
2023-01-29T09:14:07.603Z,3.17
2023-01-29T09:19:11.630Z,3.20
2023-01-29T09:24:16.730Z,3.20
2023-01-29T09:29:20.800Z,3.26
2023-01-29T09:34:22.575Z,3.29
2023-01-29T09:39:24.372Z,3.25
2023-01-29T09:44:44.910Z,3.32
2023-01-29T09:50:12.375Z,3.37
2023-01-29T09:55:20.031Z,3.45
2023-01-29T10:00:26.602Z,3.42
2023-01-29T10:05:57.619Z,3.41
2023-01-29T10:11:05.485Z,3.66
2023-01-29T10:16:22.416Z,3.61
2023-01-29T10:21:34.008Z,3.55
2023-01-29T10:26:37.997Z,3.45
2023-01-29T10:31:40.536Z,3.37
2023-01-29T10:36:47.361Z,3.68
2023-01-29T10:41:55.499Z,3.66
2023-01-29T10:47:21.590Z,3.66
2023-01-29T10:52:34.860Z,3.70
2023-01-29T10:57:55.178Z,3.75
2023-01-29T11:02:57.203Z,3.77
2023-01-29T11:08:04.761Z,3.82
2023-01-29T11:13:08.322Z,3.85
2023-01-29T11:18:18.972Z,3.84
2023-01-29T11:23:29.814Z,3.91
2023-01-29T11:28:46.341Z,4.00
2023-01-29T11:33:52.598Z,4.03
2023-01-29T11:39:23.545Z,4.03
2023-01-29T11:44:30.081Z,4.03
2023-01-29T11:49:34.032Z,4.08
2023-01-29T11:54:45.059Z,4.01
2023-01-29T11:59:53.301Z,3.98
2023-01-29T12:04:55.943Z,3.91
2023-01-29T12:10:00.479Z,3.84
2023-01-29T12:15:19.866Z,3.76
2023-01-29T12:20:31.168Z,3.74
2023-01-29T12:25:45.402Z,3.77
2023-01-29T12:31:04.300Z,3.74
2023-01-29T12:36:29.126Z,3.83
2023-01-29T12:41:41.744Z,3.86
2023-01-29T12:47:04.581Z,3.93
2023-01-29T12:52:18.424Z,3.99
2023-01-29T12:57:35.323Z,4.03
2023-01-29T13:02:50.005Z,4.04
2023-01-29T13:08:07.698Z,3.99
2023-01-29T13:13:12.383Z,3.93
2023-01-29T13:18:31.141Z,3.99
2023-01-29T13:23:41.788Z,3.97
2023-01-29T13:28:46.465Z,3.99
2023-01-29T13:33:59.666Z,3.98
2023-01-29T13:39:08.357Z,3.99
2023-01-29T13:44:28.972Z,3.97
2023-01-29T13:49:38.658Z,3.89
2023-01-29T13:54:51.629Z,3.79
2023-01-29T13:59:57.919Z,3.77
2023-01-29T14:05:32.171Z,3.76
2023-01-29T14:10:35.030Z,3.74
2023-01-29T14:15:39.633Z,3.75
2023-01-29T14:21:02.819Z,3.73
2023-01-29T14:26:10.313Z,3.79
2023-01-29T14:31:14.406Z,3.79
2023-01-29T14:36:18.742Z,3.79
2023-01-29T14:41:26.950Z,3.77
2023-01-29T14:46:34.585Z,3.76
2023-01-29T14:51:41.477Z,3.76
2023-01-29T14:56:53.196Z,3.76
2023-01-29T15:01:56.755Z,3.78
2023-01-29T15:07:18.254Z,3.78
2023-01-29T15:12:33.504Z,3.80
2023-01-29T15:17:52.565Z,3.79
2023-01-29T15:22:57.318Z,3.78
2023-01-29T15:28:01.896Z,3.77
2023-01-29T15:33:07.713Z,3.70
2023-01-29T15:38:26.976Z,3.55
2023-01-29T15:43:40.245Z,3.45
2023-01-29T15:48:45.871Z,3.35
2023-01-29T15:53:47.721Z,3.31
2023-01-29T15:58:53.948Z,3.28
2023-01-29T16:04:04.182Z,3.23
2023-01-29T16:09:06.467Z,3.18
2023-01-29T16:14:18.059Z,3.15
2023-01-29T16:19:30.088Z,3.12
2023-01-29T16:24:35.714Z,3.08
2023-01-29T16:29:39.046Z,3.08
2023-01-29T16:34:45.629Z,3.06
2023-01-29T16:39:49.612Z,3.07
2023-01-29T16:45:26.335Z,3.08
2023-01-29T16:50:36.019Z,3.07
2023-01-29T16:55:45.628Z,3.07
2023-01-29T17:00:50.822Z,3.10
2023-01-29T17:05:55.584Z,3.11
2023-01-29T17:11:02.184Z,3.14
2023-01-29T17:16:23.269Z,3.27
2023-01-29T17:21:29.019Z,3.25
2023-01-29T17:26:32.049Z,3.24
2023-01-29T17:31:33.959Z,3.23
2023-01-29T17:36:35.739Z,3.23
2023-01-29T17:41:38.343Z,3.26
2023-01-29T17:46:42.972Z,3.29
2023-01-29T17:51:46.986Z,3.32
2023-01-29T17:56:52.040Z,3.31
2023-01-29T18:01:56.174Z,3.30
2023-01-29T18:06:59.718Z,3.28
2023-01-29T18:12:01.439Z,3.26
2023-01-29T18:17:05.438Z,3.28
2023-01-29T18:22:07.145Z,3.28
2023-01-29T18:27:09.518Z,3.27
2023-01-29T18:32:13.693Z,3.29
2023-01-29T18:37:17.604Z,3.30
2023-01-29T18:42:19.423Z,3.60
2023-01-29T18:47:21.299Z,3.48
2023-01-29T18:52:23.082Z,3.41
2023-01-29T18:58:24.938Z,3.35
2023-01-29T19:02:50.765Z,3.30
2023-01-29T19:07:52.622Z,3.29
2023-01-29T19:12:54.726Z,3.26
2023-01-29T19:17:56.690Z,3.27
2023-01-29T19:22:58.456Z,3.29
2023-01-29T19:28:00.328Z,3.29
2023-01-29T19:33:04.839Z,3.33
2023-01-29T19:38:06.826Z,3.37
2023-01-29T19:43:15.322Z,3.39
2023-01-29T19:48:21.838Z,3.38
2023-01-29T19:53:27.125Z,3.40
2023-01-29T19:58:33.658Z,3.42
2023-01-29T20:03:35.518Z,3.43
2023-01-29T20:08:38.031Z,3.45
2023-01-29T20:13:44.635Z,3.47
2023-01-29T20:18:49.115Z,3.49
2023-01-29T20:23:51.919Z,3.47
2023-01-29T20:28:53.652Z,3.47
2023-01-29T20:33:55.755Z,3.50
2023-01-29T20:38:57.603Z,3.52
2023-01-29T20:43:59.353Z,3.53
2023-01-29T20:49:01.807Z,3.57
2023-01-29T20:54:08.347Z,3.59
2023-01-29T20:59:13.137Z,3.61
2023-01-29T21:04:14.916Z,3.64
2023-01-29T21:09:16.636Z,3.97
2023-01-29T21:14:21.736Z,3.72
2023-01-29T21:19:23.530Z,3.58
2023-01-29T21:24:25.520Z,3.55
2023-01-29T21:29:27.674Z,3.54
2023-01-29T21:34:30.354Z,3.48
2023-01-29T21:39:32.224Z,3.46
2023-01-29T21:44:34.613Z,3.45
2023-01-29T21:49:36.438Z,3.46
2023-01-29T21:54:41.408Z,3.47
2023-01-29T21:59:50.448Z,3.50
2023-01-29T22:05:16.576Z,3.53
2023-01-29T22:10:22.934Z,3.57
2023-01-29T22:15:25.565Z,3.60
2023-01-29T22:20:30.728Z,3.67
2023-01-29T22:25:35.785Z,3.72
2023-01-29T22:30:40.026Z,3.79
2023-01-29T22:35:41.693Z,3.84
2023-01-29T22:40:49.959Z,3.87
2023-01-29T22:45:54.427Z,3.90
2023-01-29T22:51:09.352Z,3.91
2023-01-29T22:56:11.897Z,3.92
2023-01-29T23:01:14.376Z,3.93
2023-01-29T23:06:17.030Z,3.96
2023-01-29T23:11:23.422Z,3.99
2023-01-29T23:16:27.943Z,4.02
2023-01-29T23:21:32.118Z,4.05
2023-01-29T23:26:54.298Z,4.10
2023-01-29T23:31:56.009Z,4.17
2023-01-29T23:36:58.579Z,4.19
2023-01-29T23:42:00.283Z,4.21
2023-01-29T23:47:04.395Z,4.25
2023-01-29T23:52:08.413Z,4.29
2023-01-29T23:57:10.108Z,4.29
